createdAt,value
2023-04-14T00:01:16.730Z,98343.09
2023-04-14T00:03:44.425Z,98320.97
2023-04-14T00:06:12.027Z,98306.12
2023-04-14T00:08:39.368Z,98304.94
2023-04-14T00:11:06.965Z,98320.03
2023-04-14T00:13:34.342Z,98312.34
2023-04-14T00:16:01.724Z,98308.44
2023-04-14T00:18:29.400Z,98311.19
2023-04-14T00:20:56.749Z,98312.34
2023-04-14T00:23:24.094Z,98325.38
2023-04-14T00:25:51.719Z,98324.19
2023-04-14T00:28:19.080Z,98326.94
2023-04-14T00:30:47.375Z,98317.84
2023-04-14T00:33:15.077Z,98310.59
2023-04-14T00:35:42.456Z,98318.28
2023-04-14T00:38:09.803Z,98313.84
2023-04-14T00:40:37.397Z,98316.63
2023-04-14T00:43:04.740Z,98302.50
2023-04-14T00:45:32.292Z,98297.91
2023-04-14T00:47:59.929Z,98300.03
2023-04-14T00:50:27.364Z,98297.31
2023-04-14T00:52:54.709Z,98288.91
2023-04-14T00:55:22.403Z,98284.53
2023-04-14T00:57:49.810Z,98286.66
2023-04-14T01:00:17.369Z,98287.94
2023-04-14T01:02:45.256Z,98276.69
2023-04-14T01:05:12.866Z,98269.91
2023-04-14T01:07:40.521Z,98269.13
2023-04-14T01:10:09.972Z,98265.59
2023-04-14T01:13:00.406Z,98246.25
2023-04-14T01:16:01.276Z,98229.53
2023-04-14T01:18:41.088Z,98223.00
2023-04-14T01:21:11.569Z,98215.47
2023-04-14T01:23:43.344Z,98207.97
2023-04-14T01:26:30.106Z,98198.72
2023-04-14T01:29:12.595Z,98198.88
2023-04-14T01:31:59.086Z,98192.09
2023-04-14T01:34:31.345Z,98194.78
2023-04-14T01:37:06.755Z,98194.63
2023-04-14T01:39:39.127Z,98199.94
2023-04-14T01:42:09.296Z,98210.13
2023-04-14T01:44:36.674Z,98199.03
2023-04-14T01:47:07.651Z,98190.97
2023-04-14T01:49:37.160Z,98197.59
2023-04-14T01:52:06.337Z,98197.91
2023-04-14T01:54:33.736Z,98192.94
2023-04-14T01:57:01.996Z,98189.59
2023-04-14T01:59:30.580Z,98188.28
2023-04-14T02:01:58.023Z,98177.31
2023-04-14T02:04:26.153Z,98159.84
2023-04-14T02:06:53.597Z,98160.06
2023-04-14T02:09:21.054Z,98168.16
2023-04-14T02:11:49.532Z,98161.25
2023-04-14T02:14:17.957Z,98170.84
2023-04-14T02:16:45.832Z,98184.84
2023-04-14T02:19:14.027Z,98193.69
2023-04-14T02:21:41.687Z,98183.69
2023-04-14T02:24:09.162Z,98193.88
2023-04-14T02:26:36.771Z,98188.91
2023-04-14T02:29:17.789Z,98198.34
2023-04-14T02:31:47.268Z,98196.84
2023-04-14T02:34:15.440Z,98187.22
2023-04-14T02:36:45.999Z,98185.13
2023-04-14T02:39:24.081Z,98199.47
2023-04-14T02:41:58.561Z,98182.69
2023-04-14T02:44:27.708Z,98191.16
2023-04-14T02:47:06.866Z,98187.22
2023-04-14T02:49:37.341Z,98190.78
2023-04-14T02:52:05.540Z,98186.78
2023-04-14T02:54:34.740Z,98177.44
2023-04-14T02:57:03.264Z,98186.41
2023-04-14T02:59:31.536Z,98171.28
2023-04-14T03:02:02.250Z,98169.31
2023-04-14T03:04:34.501Z,98169.50
2023-04-14T03:07:07.748Z,98162.31
2023-04-14T03:09:35.558Z,98165.31
2023-04-14T03:12:03.801Z,98159.66
2023-04-14T03:14:31.819Z,98157.56
2023-04-14T03:16:59.206Z,98152.59
2023-04-14T03:19:27.988Z,98147.47
2023-04-14T03:21:55.490Z,98133.31
2023-04-14T03:24:27.399Z,98132.53
2023-04-14T03:27:05.786Z,98116.66
2023-04-14T03:29:37.235Z,98111.37
2023-04-14T03:32:06.942Z,98129.56
2023-04-14T03:34:35.904Z,98144.34
2023-04-14T03:37:03.960Z,98165.97
2023-04-14T03:39:34.639Z,98158.16
2023-04-14T03:42:02.619Z,98157.22
2023-04-14T03:44:32.909Z,98169.44
2023-04-14T03:47:02.240Z,98195.44
2023-04-14T03:49:33.290Z,98217.31
2023-04-14T03:52:05.179Z,98205.34
2023-04-14T03:54:32.964Z,98216.78
2023-04-14T03:57:02.132Z,98212.63
2023-04-14T03:59:29.528Z,98208.69
2023-04-14T04:01:57.317Z,98206.09
2023-04-14T04:04:25.039Z,98195.09
2023-04-14T04:06:52.770Z,98184.06
2023-04-14T04:09:20.510Z,98192.03
2023-04-14T04:11:48.154Z,98181.50
2023-04-14T04:14:16.479Z,98177.31
2023-04-14T04:16:44.132Z,98182.50
2023-04-14T04:19:12.716Z,98174.88
2023-04-14T04:21:40.371Z,98170.81
2023-04-14T04:24:07.938Z,98166.19
2023-04-14T04:26:36.561Z,98160.72
2023-04-14T04:29:04.654Z,98150.03
2023-04-14T04:31:35.309Z,98141.81
2023-04-14T04:34:03.362Z,98143.19
2023-04-14T04:36:32.556Z,98139.03
2023-04-14T04:39:00.159Z,98130.50
2023-04-14T04:41:29.795Z,98134.69
2023-04-14T04:43:59.019Z,98141.28
2023-04-14T04:46:53.392Z,98150.41
2023-04-14T04:49:22.392Z,98157.22
2023-04-14T04:51:49.850Z,98156.25
2023-04-14T04:54:17.819Z,98152.00
2023-04-14T04:56:45.473Z,98151.31
2023-04-14T04:59:12.866Z,98162.81
2023-04-14T05:01:40.345Z,98167.22
2023-04-14T05:04:07.996Z,98167.94
2023-04-14T05:06:37.462Z,98167.19
2023-04-14T05:09:05.000Z,98189.75
2023-04-14T05:11:33.411Z,98189.31
2023-04-14T05:14:00.864Z,98180.78
2023-04-14T05:16:31.531Z,98175.09
2023-04-14T05:18:59.561Z,98180.28
2023-04-14T05:21:27.219Z,98186.81
2023-04-14T05:23:54.599Z,98190.47
2023-04-14T05:26:46.398Z,98192.00
2023-04-14T05:29:09.600Z,98193.56
2023-04-14T05:31:37.271Z,98187.53
2023-04-14T05:34:04.677Z,98179.50
2023-04-14T05:36:32.244Z,98183.03
2023-04-14T05:39:00.164Z,98186.13
2023-04-14T05:41:27.635Z,98179.41
2023-04-14T05:43:55.032Z,98188.84
2023-04-14T05:46:22.711Z,98190.69
2023-04-14T05:48:50.087Z,98193.13
2023-04-14T05:51:17.468Z,98205.19
2023-04-14T05:53:45.098Z,98206.84
2023-04-14T05:56:12.501Z,98208.09
2023-04-14T05:58:39.905Z,98201.59
2023-04-14T06:01:07.569Z,98193.78
2023-04-14T06:03:38.592Z,98182.66
2023-04-14T06:06:08.722Z,98188.75
2023-04-14T06:08:36.430Z,98183.62
2023-04-14T06:11:04.061Z,98183.59
2023-04-14T06:13:33.616Z,98186.47
2023-04-14T06:16:03.360Z,98180.78
2023-04-14T06:18:30.779Z,98182.00
2023-04-14T06:20:58.146Z,98170.00
2023-04-14T06:23:26.755Z,98165.00
2023-04-14T06:25:55.117Z,98159.03
2023-04-14T06:28:24.148Z,98169.03
2023-04-14T06:30:52.618Z,98160.41
2023-04-14T06:33:20.007Z,98155.34
2023-04-14T06:35:47.400Z,98158.50
2023-04-14T06:38:15.034Z,98147.88
2023-04-14T06:40:43.985Z,98144.69
2023-04-14T06:43:11.603Z,98139.97
2023-04-14T06:45:39.295Z,98150.97
2023-04-14T06:48:07.982Z,98144.59
2023-04-14T06:50:35.584Z,98141.75
2023-04-14T06:53:04.642Z,98134.28
2023-04-14T06:55:32.068Z,98140.25
2023-04-14T06:57:59.412Z,98143.66
2023-04-14T07:00:27.464Z,98146.75
2023-04-14T07:02:54.998Z,98144.78
2023-04-14T07:05:25.090Z,98148.78
2023-04-14T07:07:52.851Z,98143.06
2023-04-14T07:10:20.244Z,98138.47
2023-04-14T07:12:48.254Z,98145.62
2023-04-14T07:15:16.091Z,98147.38
2023-04-14T07:17:43.528Z,98146.09
2023-04-14T07:20:11.500Z,98145.12
2023-04-14T07:22:39.480Z,98151.41
2023-04-14T07:25:07.027Z,98149.13
2023-04-14T07:27:34.418Z,98141.56
2023-04-14T07:30:02.224Z,98129.62
2023-04-14T07:32:29.837Z,98131.84
2023-04-14T07:34:59.303Z,98128.31
2023-04-14T07:37:27.001Z,98123.78
2023-04-14T07:39:54.375Z,98124.03
2023-04-14T07:42:21.753Z,98120.38
2023-04-14T07:44:49.406Z,98123.94
2023-04-14T07:47:17.021Z,98120.16
2023-04-14T07:49:44.398Z,98121.78
2023-04-14T07:52:12.560Z,98123.56
2023-04-14T07:54:39.957Z,98128.72
2023-04-14T07:57:10.012Z,98127.53
2023-04-14T07:59:38.321Z,98130.69
2023-04-14T08:02:06.024Z,98140.91
2023-04-14T08:04:33.898Z,98124.50
2023-04-14T08:07:01.567Z,98125.56
2023-04-14T08:09:29.000Z,98117.94
2023-04-14T08:11:59.478Z,98114.44
2023-04-14T08:14:27.059Z,98105.56
2023-04-14T08:16:54.463Z,98122.22
2023-04-14T08:19:22.157Z,98124.22
2023-04-14T08:21:49.528Z,98116.13
2023-04-14T08:24:16.946Z,98116.34
2023-04-14T08:26:44.601Z,98107.16
2023-04-14T08:29:11.989Z,98108.44
2023-04-14T08:31:42.009Z,98110.66
2023-04-14T08:34:09.775Z,98107.81
2023-04-14T08:36:37.166Z,98123.19
2023-04-14T08:39:04.596Z,98115.28
2023-04-14T08:41:33.457Z,98126.09
2023-04-14T08:44:02.885Z,98126.37
2023-04-14T08:46:31.100Z,98134.72
2023-04-14T08:49:06.277Z,98146.78
2023-04-14T08:51:39.737Z,98157.13
2023-04-14T08:54:10.151Z,98153.50
2023-04-14T08:56:38.997Z,98159.53
2023-04-14T08:59:06.896Z,98150.22
2023-04-14T09:01:35.944Z,98139.78
2023-04-14T09:04:06.735Z,98148.78
2023-04-14T09:06:34.970Z,98134.63
2023-04-14T09:09:07.661Z,98146.84
2023-04-14T09:11:35.777Z,98147.28
2023-04-14T09:14:03.633Z,98154.09
2023-04-14T09:16:31.970Z,98160.72
2023-04-14T09:19:06.996Z,98163.16
2023-04-14T09:21:52.357Z,98169.19
2023-04-14T09:24:23.749Z,98169.66
2023-04-14T09:26:52.052Z,98167.97
2023-04-14T09:29:19.448Z,98170.00
2023-04-14T09:31:47.288Z,98172.78
2023-04-14T09:34:18.949Z,98167.19
2023-04-14T09:37:06.530Z,98184.00
2023-04-14T09:39:37.642Z,98169.63
2023-04-14T09:42:05.273Z,98166.56
2023-04-14T09:44:32.662Z,98164.41
2023-04-14T09:47:01.354Z,98165.25
2023-04-14T09:49:30.520Z,98167.06
2023-04-14T09:52:09.042Z,98177.59
2023-04-14T09:54:37.387Z,98154.38
2023-04-14T09:57:04.784Z,98164.22
2023-04-14T09:59:37.690Z,98158.59
2023-04-14T10:02:06.961Z,98169.66
2023-04-14T10:04:34.986Z,98172.44
2023-04-14T10:07:02.631Z,98180.31
2023-04-14T10:09:30.936Z,98173.06
2023-04-14T10:12:12.582Z,98165.75
2023-04-14T10:14:40.834Z,98176.03
2023-04-14T10:17:08.732Z,98186.84
2023-04-14T10:19:36.538Z,98183.00
2023-04-14T10:22:04.940Z,98180.00
2023-04-14T10:24:32.654Z,98174.19
2023-04-14T10:27:02.942Z,98172.13
2023-04-14T10:29:30.874Z,98164.87
2023-04-14T10:32:04.024Z,98166.25
2023-04-14T10:34:33.034Z,98182.69
2023-04-14T10:37:14.103Z,98169.19
2023-04-14T10:39:42.904Z,98179.19
2023-04-14T10:42:10.900Z,98178.13
2023-04-14T10:44:39.222Z,98183.50
2023-04-14T10:47:08.378Z,98183.00
2023-04-14T10:49:37.797Z,98186.03
2023-04-14T10:52:06.714Z,98185.09
2023-04-14T10:54:53.404Z,98178.47
2023-04-14T10:57:24.847Z,98183.38
2023-04-14T10:59:59.069Z,98181.41
2023-04-14T11:02:28.285Z,98173.81
2023-04-14T11:05:00.398Z,98180.78
2023-04-14T11:07:28.768Z,98178.22
2023-04-14T11:10:21.490Z,98170.59
2023-04-14T11:12:54.278Z,98162.44
2023-04-14T11:15:21.875Z,98174.91
2023-04-14T11:17:50.000Z,98164.56
2023-04-14T11:20:21.276Z,98177.66
2023-04-14T11:22:50.477Z,98155.50
2023-04-14T11:25:21.365Z,98158.88
2023-04-14T11:27:51.835Z,98149.78
2023-04-14T11:30:19.740Z,98148.75
2023-04-14T11:32:54.852Z,98140.94
2023-04-14T11:35:24.152Z,98145.41
2023-04-14T11:37:55.907Z,98145.56
2023-04-14T11:40:24.356Z,98144.03
2023-04-14T11:42:53.036Z,98151.72
2023-04-14T11:45:20.415Z,98144.81
2023-04-14T11:48:05.101Z,98148.22
2023-04-14T11:50:33.675Z,98159.53
2023-04-14T11:53:04.087Z,98153.81
2023-04-14T11:55:31.874Z,98153.25
2023-04-14T11:57:59.395Z,98152.69
2023-04-14T12:00:27.743Z,98152.78
2023-04-14T12:02:55.745Z,98149.56
2023-04-14T12:05:25.472Z,98150.75
2023-04-14T12:08:00.834Z,98144.22
2023-04-14T12:10:29.201Z,98135.78
2023-04-14T12:13:03.533Z,98143.19
2023-04-14T12:15:36.972Z,98145.88
2023-04-14T12:18:06.907Z,98141.22
2023-04-14T12:20:48.057Z,98146.53
2023-04-14T12:23:15.741Z,98147.94
2023-04-14T12:25:43.414Z,98157.13
2023-04-14T12:28:10.989Z,98159.59
2023-04-14T12:30:39.066Z,98161.19
2023-04-14T12:33:12.230Z,98172.03
2023-04-14T12:35:40.725Z,98164.50
2023-04-14T12:38:10.879Z,98177.84
2023-04-14T12:40:41.069Z,98175.25
2023-04-14T12:43:09.815Z,98188.38
2023-04-14T12:45:45.415Z,98185.38
2023-04-14T12:48:17.785Z,98179.41
2023-04-14T12:50:45.900Z,98185.50
2023-04-14T12:53:27.670Z,98189.59
2023-04-14T12:56:09.656Z,98183.03
2023-04-14T12:58:41.362Z,98190.00
2023-04-14T13:01:11.584Z,98186.84
2023-04-14T13:03:54.697Z,98189.31
2023-04-14T13:06:23.738Z,98195.06
2023-04-14T13:08:53.079Z,98196.50
2023-04-14T13:11:24.610Z,98195.84
2023-04-14T13:13:53.908Z,98216.41
2023-04-14T13:16:26.580Z,98215.69
2023-04-14T13:18:57.192Z,98223.66
2023-04-14T13:21:28.637Z,98216.13
2023-04-14T13:23:56.897Z,98206.25
2023-04-14T13:26:27.305Z,98197.50
2023-04-14T13:28:54.756Z,98205.38
2023-04-14T13:31:23.730Z,98204.59
2023-04-14T13:33:53.330Z,98214.25
2023-04-14T13:36:24.701Z,98221.00
2023-04-14T13:38:54.952Z,98224.72
2023-04-14T13:41:29.149Z,98226.78
2023-04-14T13:44:02.294Z,98229.06
2023-04-14T13:46:36.172Z,98221.53
2023-04-14T13:49:12.231Z,98226.69
2023-04-14T13:51:39.817Z,98216.78
2023-04-14T13:54:07.218Z,98205.41
2023-04-14T13:56:34.836Z,98213.72
2023-04-14T13:59:03.545Z,98211.59
2023-04-14T14:01:32.876Z,98223.41
2023-04-14T14:04:03.033Z,98228.88
2023-04-14T14:06:32.582Z,98229.22
2023-04-14T14:09:06.652Z,98243.41
2023-04-14T14:11:40.736Z,98223.41
2023-04-14T14:14:13.486Z,98231.41
2023-04-14T14:16:43.893Z,98243.94
2023-04-14T14:19:15.749Z,98261.81
2023-04-14T14:21:47.480Z,98260.88
2023-04-14T14:24:16.588Z,98253.56
2023-04-14T14:26:46.027Z,98256.50
2023-04-14T14:29:14.621Z,98255.78
2023-04-14T14:31:42.118Z,98255.34
2023-04-14T14:34:09.753Z,98263.63
2023-04-14T14:36:37.335Z,98262.72
2023-04-14T14:39:04.773Z,98273.94
2023-04-14T14:41:32.225Z,98282.25
2023-04-14T14:44:01.234Z,98283.03
2023-04-14T14:46:29.180Z,98288.81
2023-04-14T14:48:57.849Z,98287.63
2023-04-14T14:51:27.647Z,98288.59
2023-04-14T14:54:04.237Z,98284.50
2023-04-14T14:56:36.685Z,98283.59
2023-04-14T14:59:04.070Z,98297.44
2023-04-14T15:01:32.981Z,98297.28
2023-04-14T15:04:00.856Z,98298.09
2023-04-14T15:06:28.582Z,98295.91
2023-04-14T15:08:55.939Z,98305.38
2023-04-14T15:11:24.416Z,98318.28
2023-04-14T15:13:52.020Z,98312.81
2023-04-14T15:16:19.503Z,98303.78
2023-04-14T15:18:47.142Z,98322.63
2023-04-14T15:21:14.480Z,98316.53
2023-04-14T15:23:43.757Z,98322.56
2023-04-14T15:26:14.249Z,98325.28
2023-04-14T15:28:41.659Z,98330.06
2023-04-14T15:31:09.306Z,98327.09
2023-04-14T15:33:37.081Z,98327.72
2023-04-14T15:36:04.518Z,98336.62
2023-04-14T15:38:31.884Z,98333.38
2023-04-14T15:40:59.614Z,98338.91
2023-04-14T15:43:27.816Z,98344.28
2023-04-14T15:45:55.351Z,98338.19
2023-04-14T15:48:22.981Z,98349.34
2023-04-14T15:50:50.357Z,98350.59
2023-04-14T15:53:17.684Z,98354.37
2023-04-14T15:55:45.444Z,98362.69
2023-04-14T15:58:12.832Z,98372.94
2023-04-14T16:00:40.139Z,98362.59
2023-04-14T16:03:07.935Z,98359.69
2023-04-14T16:05:35.576Z,98357.78
2023-04-14T16:08:02.914Z,98368.97
2023-04-14T16:10:30.782Z,98357.47
2023-04-14T16:12:58.133Z,98372.50
2023-04-14T16:15:25.529Z,98381.53
2023-04-14T16:17:53.159Z,98380.00
2023-04-14T16:20:20.833Z,98383.50
2023-04-14T16:22:49.333Z,98385.94
2023-04-14T16:25:16.978Z,98379.78
2023-04-14T16:27:44.287Z,98386.38
2023-04-14T16:30:12.089Z,98386.97
2023-04-14T16:32:39.844Z,98394.09
2023-04-14T16:35:07.928Z,98395.91
2023-04-14T16:37:35.258Z,98400.28
2023-04-14T16:40:03.086Z,98405.12
2023-04-14T16:42:30.463Z,98401.03
2023-04-14T16:44:58.215Z,98405.94
2023-04-14T16:47:25.837Z,98419.75
2023-04-14T16:49:53.221Z,98428.12
2023-04-14T16:52:20.531Z,98438.84
2023-04-14T16:54:48.143Z,98436.84
2023-04-14T16:57:15.503Z,98442.12
2023-04-14T16:59:43.000Z,98450.34
2023-04-14T17:02:11.223Z,98449.13
2023-04-14T17:04:38.739Z,98463.81
2023-04-14T17:07:06.157Z,98457.69
2023-04-14T17:09:33.778Z,98469.53
2023-04-14T17:12:01.485Z,98470.78
2023-04-14T17:14:28.955Z,98462.41
2023-04-14T17:16:56.751Z,98465.25
2023-04-14T17:19:26.422Z,98469.97
2023-04-14T17:21:54.109Z,98469.56
2023-04-14T17:24:21.821Z,98474.25
2023-04-14T17:26:49.292Z,98475.25
2023-04-14T17:29:16.974Z,98476.91
2023-04-14T17:31:44.984Z,98482.00
2023-04-14T17:34:12.518Z,98485.69
2023-04-14T17:36:39.849Z,98496.50
2023-04-14T17:39:08.404Z,98503.06
2023-04-14T17:41:37.097Z,98512.66
2023-04-14T17:44:04.824Z,98520.81
2023-04-14T17:46:35.775Z,98517.97
2023-04-14T17:49:03.912Z,98524.25
2023-04-14T17:51:31.388Z,98532.72
2023-04-14T17:53:59.216Z,98540.66
2023-04-14T17:56:26.823Z,98540.00
2023-04-14T17:58:54.228Z,98548.59
2023-04-14T18:01:24.020Z,98546.25
2023-04-14T18:03:51.682Z,98549.66
2023-04-14T18:06:19.431Z,98557.38
2023-04-14T18:08:46.777Z,98567.00
2023-04-14T18:11:14.385Z,98569.69
2023-04-14T18:13:41.705Z,98569.34
2023-04-14T18:16:10.565Z,98571.91
2023-04-14T18:18:38.495Z,98575.66
2023-04-14T18:21:05.874Z,98572.69
2023-04-14T18:23:33.201Z,98582.19
2023-04-14T18:28:32.290Z,98579.41
2023-04-14T18:30:59.728Z,98592.78
2023-04-14T18:33:27.777Z,98592.78
2023-04-14T18:35:56.848Z,98590.97
2023-04-14T18:38:25.951Z,98592.81
2023-04-14T18:40:53.571Z,98594.56
2023-04-14T18:43:21.197Z,98587.44
2023-04-14T18:45:48.786Z,98593.97
2023-04-14T18:48:16.718Z,98592.50
2023-04-14T18:50:44.142Z,98593.75
2023-04-14T18:53:11.770Z,98591.97
2023-04-14T18:55:45.066Z,98590.47
2023-04-14T18:58:13.526Z,98593.59
2023-04-14T19:00:43.140Z,98603.97
2023-04-14T19:03:10.715Z,98603.59
2023-04-14T19:05:38.202Z,98603.00
2023-04-14T19:08:06.965Z,98605.44
2023-04-14T19:10:34.459Z,98609.81
2023-04-14T19:13:02.038Z,98607.84
2023-04-14T19:15:29.749Z,98613.78
2023-04-14T19:17:57.131Z,98621.16
2023-04-14T19:20:24.557Z,98619.00
2023-04-14T19:22:52.162Z,98623.44
2023-04-14T19:25:19.566Z,98627.53
2023-04-14T19:27:46.914Z,98620.91
2023-04-14T19:30:14.539Z,98625.94
2023-04-14T19:32:42.010Z,98631.47
2023-04-14T19:35:10.045Z,98644.19
2023-04-14T19:37:38.617Z,98642.47
2023-04-14T19:40:06.884Z,98649.97
2023-04-14T19:42:34.295Z,98652.69
2023-04-14T19:45:02.043Z,98646.84
2023-04-14T19:47:29.493Z,98645.03
2023-04-14T19:49:59.585Z,98654.56
2023-04-14T19:52:27.203Z,98652.47
2023-04-14T19:54:55.034Z,98658.72
2023-04-14T19:57:23.776Z,98661.06
2023-04-14T19:59:51.460Z,98657.06
2023-04-14T20:02:19.117Z,98665.38
2023-04-14T20:04:48.326Z,98669.28
2023-04-14T20:07:15.758Z,98662.16
2023-04-14T20:09:46.525Z,98657.44
2023-04-14T20:12:14.367Z,98664.16
2023-04-14T20:14:41.887Z,98667.78
2023-04-14T20:17:09.296Z,98674.13
2023-04-14T20:19:36.994Z,98671.34
2023-04-14T20:22:04.414Z,98667.31
2023-04-14T20:24:31.787Z,98667.09
2023-04-14T20:26:59.375Z,98673.84
2023-04-14T20:29:26.776Z,98666.63
2023-04-14T20:31:54.099Z,98661.75
2023-04-14T20:34:21.720Z,98666.91
2023-04-14T20:36:50.319Z,98663.12
2023-04-14T20:39:18.001Z,98661.81
2023-04-14T20:41:46.456Z,98657.63
2023-04-14T20:44:13.813Z,98658.91
2023-04-14T20:46:41.731Z,98656.44
2023-04-14T20:49:09.720Z,98658.13
2023-04-14T20:51:39.464Z,98665.50
2023-04-14T20:54:07.068Z,98664.00
2023-04-14T20:56:34.767Z,98665.63
2023-04-14T20:59:02.352Z,98674.16
2023-04-14T21:01:30.512Z,98678.38
2023-04-14T21:03:58.640Z,98684.69
2023-04-14T21:06:26.083Z,98695.91
2023-04-14T21:08:53.475Z,98693.94
2023-04-14T21:11:21.091Z,98693.56
2023-04-14T21:15:28.285Z,98690.13
2023-04-14T21:16:36.241Z,98699.22
2023-04-14T21:19:04.437Z,98702.44
2023-04-14T21:21:33.045Z,98700.94
2023-04-14T21:24:02.093Z,98693.72
2023-04-14T21:26:29.502Z,98682.72
2023-04-14T21:28:57.027Z,98671.31
2023-04-14T21:31:24.767Z,98665.50
2023-04-14T21:33:52.526Z,98679.19
2023-04-14T21:36:19.978Z,98695.16
2023-04-14T21:38:48.104Z,98695.63
2023-04-14T21:41:15.942Z,98690.87
2023-04-14T21:43:43.492Z,98689.00
2023-04-14T21:46:11.166Z,98691.13
2023-04-14T21:48:38.552Z,98697.03
2023-04-14T21:51:05.926Z,98700.28
2023-04-14T21:53:33.560Z,98689.31
2023-04-14T21:56:10.331Z,98699.53
2023-04-14T21:58:39.569Z,98705.59
2023-04-14T22:01:10.322Z,98709.75
2023-04-14T22:03:41.794Z,98707.31
2023-04-14T22:06:11.308Z,98707.00
2023-04-14T22:08:39.450Z,98697.16
2023-04-14T22:11:07.084Z,98696.50
2023-04-14T22:13:34.486Z,98702.50
2023-04-14T22:16:02.502Z,98705.34
2023-04-14T22:18:30.925Z,98711.22
2023-04-14T22:20:58.736Z,98710.19
2023-04-14T22:23:26.353Z,98709.25
2023-04-14T22:25:53.696Z,98726.66
2023-04-14T22:28:21.624Z,98721.00
2023-04-14T22:30:49.334Z,98713.87
2023-04-14T22:33:16.689Z,98705.22
2023-04-14T22:35:44.031Z,98700.50
2023-04-14T22:38:12.124Z,98712.03
2023-04-14T22:40:39.479Z,98714.53
2023-04-14T22:43:08.948Z,98715.56
2023-04-14T22:45:37.228Z,98709.28
2023-04-14T22:48:05.331Z,98725.47
2023-04-14T22:50:33.799Z,98712.34
2023-04-14T22:53:01.971Z,98707.94
2023-04-14T22:55:29.401Z,98713.50
2023-04-14T22:57:57.108Z,98707.91
2023-04-14T23:00:24.781Z,98704.97
2023-04-14T23:02:53.035Z,98726.78
2023-04-14T23:05:20.482Z,98715.06
2023-04-14T23:07:48.390Z,98722.28
2023-04-14T23:10:16.023Z,98716.56
2023-04-14T23:12:43.409Z,98715.56
2023-04-14T23:15:11.035Z,98711.06
2023-04-14T23:17:38.516Z,98714.81
2023-04-14T23:20:07.095Z,98710.09
2023-04-14T23:22:34.727Z,98714.03
2023-04-14T23:25:02.250Z,98712.75
2023-04-14T23:27:29.760Z,98724.03
2023-04-14T23:29:57.344Z,98722.88
2023-04-14T23:32:24.742Z,98721.59
2023-04-14T23:34:52.136Z,98726.31
2023-04-14T23:37:19.789Z,98731.78
2023-04-14T23:39:47.179Z,98731.53
2023-04-14T23:42:14.541Z,98733.19
2023-04-14T23:44:42.121Z,98738.06
2023-04-14T23:47:09.549Z,98742.87
2023-04-14T23:49:37.152Z,98744.13
2023-04-14T23:52:05.238Z,98747.50
2023-04-14T23:54:32.728Z,98746.44
2023-04-14T23:57:00.094Z,98730.97
2023-04-14T23:59:28.382Z,98740.38
